Time;durP1;ratioP1;P1;durP2;ratioP2;P2;SDS_P1;SDS_P2;PMS_P1;PMS_P2;Temp;Humidity;BMP_temperature;BMP_pressure;BME280_temperature;BME280_humidity;BME280_pressure;Samples;Min_cycle;Max_cycle;Signal;HPM_P1;HPM_P2
2023/07/09 00:00:48;;;;;;;0.80;0.80;;;;;;;18.79;86.47;97046.69;4965471;28;20054;-65
2023/07/09 00:03:17;;;;;;;0.80;0.80;;;;;;;19.29;86.70;97131.78;4965688;28;20090;-66
2023/07/09 00:05:46;;;;;;;0.80;0.80;;;;;;;19.12;86.28;97109.56;4964280;28;20455;-65
2023/07/09 00:08:31;;;;;;;0.80;0.80;;;;;;;19.07;85.90;97096.00;4979788;28;20457;-65
2023/07/09 00:10:58;;;;;;;0.80;0.80;;;;;;;19.32;86.51;97136.56;4964963;28;20054;-66
2023/07/09 00:13:26;;;;;;;0.73;0.73;;;;;;;19.16;86.69;97127.94;4963940;28;20493;-66
2023/07/09 00:15:59;;;;;;;0.80;0.80;;;;;;;18.63;85.76;97046.53;4965250;28;20063;-65
2023/07/09 00:18:26;;;;;;;;;;;;;;;19.30;84.18;97144.59;4964725;28;20105;-66
2023/07/09 00:20:53;;;;;;;0.80;0.80;;;;;;;19.15;85.04;97134.78;4964896;28;19925;-65
2023/07/09 00:23:20;;;;;;;0.85;0.85;;;;;;;18.92;85.32;97098.22;4965333;28;20065;-65
2023/07/09 00:25:47;;;;;;;0.77;0.77;;;;;;;19.02;85.81;97110.50;4965295;28;20073;-66
2023/07/09 00:28:16;;;;;;;0.80;0.80;;;;;;;18.82;87.10;97158.13;4963975;28;20513;-65
2023/07/09 00:30:44;;;;;;;0.80;0.80;;;;;;;18.57;88.95;97109.97;4965541;28;20054;-65
2023/07/09 00:33:15;;;;;;;0.80;0.80;;;;;;;18.91;88.94;97143.56;4965906;28;20361;-64
2023/07/09 00:35:44;;;;;;;0.70;0.70;;;;;;;18.91;87.68;97149.16;4965619;28;20054;-65
2023/07/09 00:38:16;;;;;;;0.70;0.70;;;;;;;18.75;87.30;97118.13;4965397;28;20145;-65
2023/07/09 00:41:00;;;;;;;0.85;0.85;;;;;;;19.02;87.07;97153.44;4965369;28;20460;-65
2023/07/09 00:43:30;;;;;;;;;;;;;;;19.07;86.56;97181.03;4965954;28;20047;-65
2023/07/09 00:46:26;;;;;;;0.80;0.80;;;;;;;18.86;89.14;97181.31;4946414;28;19927;-65
2023/07/09 00:49:10;;;;;;;0.80;0.80;;;;;;;18.77;89.50;97152.19;4945728;28;20067;-65
2023/07/09 00:51:41;;;;;;;0.70;0.70;;;;;;;18.98;88.80;97172.34;4945774;28;20048;-64
2023/07/09 00:54:36;;;;;;;0.70;0.70;;;;;;;18.91;88.35;97152.78;4944222;29;20526;-65
2023/07/09 00:57:09;;;;;;;0.70;0.70;;;;;;;18.82;88.68;97123.63;4945373;28;20051;-65
2023/07/09 00:59:37;;;;;;;0.70;0.70;;;;;;;19.18;88.68;97158.41;4945816;28;20052;-65
2023/07/09 01:02:06;;;;;;;0.80;0.80;;;;;;;19.26;88.63;97171.94;4944321;29;20059;-65
2023/07/09 01:04:33;;;;;;;0.73;0.73;;;;;;;18.98;87.96;97135.03;4944111;28;20063;-65
2023/07/09 01:07:00;;;;;;;0.80;0.80;;;;;;;19.26;86.61;97166.31;4945657;29;20051;-65
2023/07/09 01:09:27;;;;;;;0.80;0.80;;;;;;;19.07;85.73;97141.72;4945570;28;20057;-66
2023/07/09 01:11:56;;;;;;;0.70;0.70;;;;;;;19.13;87.91;97167.31;4965804;28;20441;-65
2023/07/09 01:14:25;;;;;;;0.73;0.73;;;;;;;19.02;87.61;97173.09;4971963;28;20070;-65
2023/07/09 01:17:00;;;;;;;0.70;0.70;;;;;;;18.92;87.96;97156.41;4967424;28;20142;-65
2023/07/09 01:19:40;;;;;;;0.80;0.80;;;;;;;18.74;88.78;97172.66;4967477;28;20046;-64
2023/07/09 01:22:07;;;;;;;0.80;0.80;;;;;;;18.70;88.30;97150.25;4967951;28;20082;-64
2023/07/09 01:25:07;;;;;;;0.70;0.70;;;;;;;18.86;88.72;97175.72;4968438;28;20585;-64
2023/07/09 01:27:35;;;;;;;0.73;0.73;;;;;;;18.73;88.26;97176.69;4966448;28;20138;-66
2023/07/09 01:30:06;;;;;;;0.73;0.73;;;;;;;18.25;91.78;97154.41;4968860;28;20050;-64
2023/07/09 01:32:35;;;;;;;0.70;0.70;;;;;;;18.19;92.95;97147.66;4968645;28;20150;-64
2023/07/09 01:35:06;;;;;;;0.80;0.80;;;;;;;17.60;93.15;97059.41;4968281;28;20137;-64
2023/07/09 01:37:37;;;;;;;0.80;0.80;;;;;;;17.93;93.66;97149.13;4966720;28;20388;-64
2023/07/09 01:40:06;;;;;;;0.73;0.73;;;;;;;18.03;94.04;97167.06;4968251;28;20058;-64
2023/07/09 01:43:01;;;;;;;0.70;0.70;;;;;;;17.72;96.82;97157.72;4967904;28;20662;-64
2023/07/09 01:45:28;;;;;;;0.70;0.70;;;;;;;17.66;97.29;97141.78;4968312;28;20062;-64
2023/07/09 01:47:55;;;;;;;0.80;0.80;;;;;;;17.72;96.33;97163.34;4968042;28;20502;-64
2023/07/09 01:50:24;;;;;;;0.70;0.70;;;;;;;17.62;95.75;97138.22;4967873;28;20063;-65
2023/07/09 01:52:53;;;;;;;0.80;0.80;;;;;;;17.60;95.59;97137.84;4968344;28;20109;-64
2023/07/09 01:55:20;;;;;;;0.70;0.70;;;;;;;17.74;94.68;97155.31;4967670;28;20133;-64
2023/07/09 01:57:47;;;;;;;0.80;0.80;;;;;;;17.51;94.95;97134.72;4967917;28;20050;-64
2023/07/09 02:00:16;;;;;;;0.80;0.80;;;;;;;17.95;96.52;97201.97;4967615;28;20051;-64
2023/07/09 02:02:45;;;;;;;0.77;0.77;;;;;;;17.91;97.04;97204.78;4968029;28;20062;-64
2023/07/09 02:05:17;;;;;;;0.70;0.70;;;;;;;17.90;95.35;97208.00;4967809;28;20129;-64
2023/07/09 02:07:45;;;;;;;0.75;0.75;;;;;;;17.57;95.63;97166.69;4968360;28;20486;-64
2023/07/09 02:10:12;;;;;;;0.80;0.80;;;;;;;17.71;96.26;97188.97;4966499;28;20054;-63
2023/07/09 02:12:39;;;;;;;0.70;0.70;;;;;;;17.60;96.15;97182.66;4966451;28;20046;-64
2023/07/09 02:15:06;;;;;;;0.70;0.70;;;;;;;17.59;97.27;97181.84;4966444;28;20109;-64
2023/07/09 02:17:33;;;;;;;0.70;0.70;;;;;;;17.28;96.60;97159.66;4965912;28;20520;-64
2023/07/09 02:20:00;;;;;;;0.70;0.70;;;;;;;17.56;97.54;97204.31;4967636;28;20059;-64
2023/07/09 02:22:27;;;;;;;0.70;0.70;;;;;;;17.40;98.63;97215.19;4967179;28;20058;-64
2023/07/09 02:24:54;;;;;;;0.80;0.80;;;;;;;17.17;98.88;97175.75;4967283;28;20440;-64
2023/07/09 02:27:21;;;;;;;0.70;0.70;;;;;;;16.71;99.53;97108.09;4967378;28;20465;-64
2023/07/09 02:29:48;;;;;;;0.70;0.70;;;;;;;17.21;100.00;97188.53;4967252;28;20523;-64
2023/07/09 02:32:25;;;;;;;0.73;0.73;;;;;;;17.28;98.25;97204.47;4967370;28;20050;-65
2023/07/09 02:34:52;;;;;;;0.60;0.60;;;;;;;17.29;100.00;97217.28;4966959;28;20437;-64
2023/07/09 02:37:23;;;;;;;0.70;0.70;;;;;;;17.30;98.82;97207.66;4966422;28;20742;-64
2023/07/09 02:39:50;;;;;;;0.70;0.70;;;;;;;17.27;98.74;97202.88;4966869;28;20062;-64
2023/07/09 02:42:19;;;;;;;0.70;0.70;;;;;;;17.32;99.24;97216.44;4966130;28;20051;-63
2023/07/09 02:44:46;;;;;;;0.80;0.80;;;;;;;16.94;99.30;97158.72;4965310;28;20133;-65
2023/07/09 02:47:13;;;;;;;0.70;0.70;;;;;;;17.34;98.88;97216.84;4966908;28;20063;-64
2023/07/09 02:49:40;;;;;;;0.70;0.70;;;;;;;17.12;97.89;97185.38;4967414;28;20356;-64
2023/07/09 02:52:08;;;;;;;0.80;0.80;;;;;;;17.12;99.01;97227.34;4966715;28;20057;-64
2023/07/09 02:54:35;;;;;;;0.63;0.63;;;;;;;16.76;99.18;97183.16;4966511;28;20082;-64
2023/07/09 02:57:01;;;;;;;0.70;0.70;;;;;;;16.90;99.50;97185.94;4967008;28;20315;-64
2023/07/09 02:59:29;;;;;;;0.80;0.80;;;;;;;16.96;99.44;97223.47;4954134;28;20055;-65
2023/07/09 03:01:56;;;;;;;0.80;0.80;;;;;;;17.01;99.65;97239.84;4945749;29;20051;-64
2023/07/09 03:04:24;;;;;;;0.70;0.70;;;;;;;16.77;99.58;97201.56;4947525;29;20118;-65
2023/07/09 03:06:51;;;;;;;0.70;0.70;;;;;;;16.90;99.19;97239.09;4946963;29;20051;-65
2023/07/09 03:09:18;;;;;;;0.70;0.70;;;;;;;16.70;99.54;97212.78;4947145;29;20059;-64
2023/07/09 03:11:45;;;;;;;0.77;0.77;;;;;;;16.84;99.56;97243.50;4959951;28;20445;-64
2023/07/09 03:14:12;;;;;;;0.80;0.80;;;;;;;16.80;99.65;97223.13;4961943;28;20051;-64
2023/07/09 03:16:39;;;;;;;0.70;0.70;;;;;;;16.11;100.00;97139.88;4946017;29;20054;-64
2023/07/09 03:19:06;;;;;;;0.70;0.70;;;;;;;16.22;100.00;97154.59;4946884;29;20055;-65
2023/07/09 03:21:33;;;;;;;0.77;0.77;;;;;;;16.82;99.66;97237.53;4946745;29;20149;-64
2023/07/09 03:24:00;;;;;;;0.70;0.70;;;;;;;16.01;98.48;97112.75;4947249;28;20052;-64
2023/07/09 03:26:26;;;;;;;0.70;0.70;;;;;;;16.34;98.67;97162.53;4945528;29;20051;-64
2023/07/09 03:28:54;;;;;;;0.63;0.63;;;;;;;16.54;100.00;97205.66;4946853;28;20090;-65
2023/07/09 03:31:22;;;;;;;0.70;0.70;;;;;;;16.94;100.00;97254.66;4945380;29;20134;-64
2023/07/09 03:33:50;;;;;;;0.70;0.70;;;;;;;16.37;99.96;97166.53;4944995;28;20058;-64
2023/07/09 03:36:19;;;;;;;0.77;0.77;;;;;;;16.93;100.00;97261.44;4946480;28;20063;-64
2023/07/09 03:38:47;;;;;;;0.80;0.80;;;;;;;16.78;99.21;97217.94;4946804;29;20063;-64
2023/07/09 03:41:14;;;;;;;0.80;0.80;;;;;;;15.59;96.84;97020.72;4946403;29;20566;-63
2023/07/09 03:43:41;;;;;;;0.70;0.70;;;;;;;17.20;96.38;97270.13;4947204;28;20498;-63
2023/07/09 03:46:07;;;;;;;0.70;0.70;;;;;;;16.98;97.75;97229.44;4944468;29;20062;-66
2023/07/09 03:48:34;;;;;;;0.70;0.70;;;;;;;16.91;97.65;97201.50;4946385;29;20242;-63
2023/07/09 03:51:01;;;;;;;0.70;0.70;;;;;;;17.44;95.77;97252.38;4945928;29;20051;-64
2023/07/09 03:53:28;;;;;;;0.80;0.80;;;;;;;17.37;94.90;97218.81;4946534;29;20550;-64
2023/07/09 03:55:56;;;;;;;0.70;0.70;;;;;;;17.73;93.50;97248.19;4945615;28;20070;-67
2023/07/09 03:58:25;;;;;;;0.80;0.80;;;;;;;17.82;92.64;97257.75;4960153;28;20059;-64
2023/07/09 04:00:53;;;;;;;0.65;0.65;;;;;;;18.02;92.31;97266.38;4945795;28;20442;-65
2023/07/09 04:03:21;;;;;;;0.80;0.80;;;;;;;17.95;91.03;97260.84;4946271;29;20059;-63
2023/07/09 04:05:48;;;;;;;0.80;0.80;;;;;;;18.11;91.35;97263.91;4945821;29;20415;-65
2023/07/09 04:08:15;;;;;;;0.80;0.80;;;;;;;17.86;92.54;97235.28;4946169;29;20063;-65
2023/07/09 04:10:42;;;;;;;0.80;0.80;;;;;;;18.22;92.30;97246.97;4948575;28;20055;-65
2023/07/09 04:13:09;;;;;;;0.70;0.70;;;;;;;17.70;90.53;97160.13;4965216;28;20510;-65
2023/07/09 04:15:35;;;;;;;0.75;0.75;;;;;;;17.87;89.51;97172.41;4964695;28;20461;-65
2023/07/09 04:18:02;;;;;;;0.80;0.80;;;;;;;18.50;90.15;97298.00;4965672;28;20050;-66
2023/07/09 04:20:29;;;;;;;0.80;0.80;;;;;;;18.26;90.98;97192.44;4965665;28;20494;-65
2023/07/09 04:22:56;;;;;;;0.80;0.80;;;;;;;17.13;89.86;96993.03;4965840;28;20057;-66
2023/07/09 04:25:23;;;;;;;0.80;0.80;;;;;;;18.96;88.99;97259.00;4965324;28;20050;-64
2023/07/09 04:27:50;;;;;;;0.80;0.80;;;;;;;19.14;88.87;97253.16;4965389;28;20061;-63
2023/07/09 04:30:17;;;;;;;0.80;0.80;;;;;;;19.10;87.16;97241.97;4965338;28;20129;-63
2023/07/09 04:32:44;;;;;;;0.80;0.80;;;;;;;19.07;86.09;97214.75;4965445;28;20058;-63
2023/07/09 04:35:14;;;;;;;0.70;0.70;;;;;;;19.46;86.40;97259.16;4965310;28;20379;-64
2023/07/09 04:37:41;;;;;;;0.70;0.70;;;;;;;19.55;85.31;97229.31;4965264;28;20059;-64
2023/07/09 04:40:10;;;;;;;0.80;0.80;;;;;;;19.73;84.40;97247.94;4965185;28;20051;-63
2023/07/09 04:42:38;;;;;;;0.77;0.77;;;;;;;19.55;83.24;97206.81;4963965;28;20062;-64
2023/07/09 04:45:07;;;;;;;0.80;0.80;;;;;;;19.92;83.45;97219.88;4965037;28;20541;-64
2023/07/09 04:47:34;;;;;;;0.90;0.90;;;;;;;19.73;83.25;97205.78;4968740;28;20143;-64
2023/07/09 04:50:02;;;;;;;0.80;0.80;;;;;;;20.24;82.20;97236.25;4969310;28;20134;-66
2023/07/09 04:52:30;;;;;;;0.98;0.98;;;;;;;20.41;81.86;97237.94;4968874;28;20169;-64
2023/07/09 04:54:57;;;;;;;0.80;0.80;;;;;;;20.31;79.86;97179.84;4967295;28;20061;-65
2023/07/09 04:57:24;;;;;;;0.80;0.80;;;;;;;19.71;78.31;97057.22;4967650;28;20061;-65
2023/07/09 04:59:51;;;;;;;0.80;0.80;;;;;;;21.01;77.35;97237.56;4969252;28;20054;-65
2023/07/09 05:02:17;;;;;;;0.88;0.88;;;;;;;21.27;76.61;97262.00;4967457;28;20046;-65
2023/07/09 05:04:44;;;;;;;0.90;0.90;;;;;;;21.26;76.02;97222.97;4968761;28;20054;-65
2023/07/09 05:07:11;;;;;;;0.90;0.90;;;;;;;21.47;75.22;97206.38;4968746;28;20429;-65
2023/07/09 05:09:37;;;;;;;0.80;0.80;;;;;;;21.80;69.60;97241.84;4967233;28;20055;-64
2023/07/09 05:12:05;;;;;;;0.90;0.90;;;;;;;21.75;64.32;97211.34;4969010;28;20061;-65
2023/07/09 05:14:31;;;;;;;0.90;0.90;;;;;;;22.19;60.48;97258.63;4968950;28;20149;-65
2023/07/09 05:16:58;;;;;;;1.00;1.00;;;;;;;22.08;59.80;97207.28;4969056;28;20089;-65
2023/07/09 05:19:25;;;;;;;0.90;0.90;;;;;;;22.40;64.11;97235.50;4967593;28;20058;-65
2023/07/09 05:21:51;;;;;;;0.90;0.90;;;;;;;22.34;63.54;97234.44;4968592;28;20161;-65
2023/07/09 05:24:18;;;;;;;1.10;1.10;;;;;;;22.78;63.48;97274.47;4969103;28;20053;-65
2023/07/09 05:26:45;;;;;;;1.00;1.00;;;;;;;22.61;61.77;97217.22;4967734;28;20051;-64
2023/07/09 05:29:11;;;;;;;1.00;1.00;;;;;;;23.13;58.34;97270.63;4968398;28;20051;-66
2023/07/09 05:31:38;;;;;;;1.08;1.08;;;;;;;23.29;57.92;97262.13;4968225;28;20053;-65
2023/07/09 05:34:05;;;;;;;1.00;1.00;;;;;;;23.13;59.48;97231.06;4967943;28;20058;-66
2023/07/09 05:36:32;;;;;;;1.00;1.00;;;;;;;23.48;61.18;97253.47;4968031;28;20553;-65
2023/07/09 05:38:58;;;;;;;1.02;1.02;;;;;;;23.25;63.18;97221.84;4967953;28;20137;-65
2023/07/09 05:41:25;;;;;;;1.08;1.08;;;;;;;23.36;62.40;97240.06;4968321;28;20054;-66
2023/07/09 05:43:52;;;;;;;1.30;1.30;;;;;;;23.56;59.90;97237.06;4967881;28;20047;-64
2023/07/09 05:46:21;;;;;;;1.00;1.00;;;;;;;23.61;62.40;97234.47;4966806;28;20054;-64
2023/07/09 05:48:48;;;;;;;1.00;1.00;;;;;;;23.93;61.07;97267.41;4968153;28;20117;-64
2023/07/09 05:51:15;;;;;;;1.02;1.02;;;;;;;24.07;59.55;97278.31;4967860;28;20053;-65
2023/07/09 05:53:42;;;;;;;0.98;0.98;;;;;;;24.17;59.36;97267.88;4968206;28;20055;-65
2023/07/09 05:56:08;;;;;;;1.10;1.10;;;;;;;24.02;58.17;97222.25;4968198;28;20051;-65
2023/07/09 05:58:36;;;;;;;1.10;1.10;;;;;;;24.10;58.00;97222.81;4967786;28;20090;-65
2023/07/09 06:01:02;;;;;;;1.10;1.10;;;;;;;24.13;58.63;97219.88;4967403;28;20384;-64
2023/07/09 06:03:29;;;;;;;1.20;1.20;;;;;;;24.52;58.48;97261.81;4969419;28;20058;-66
2023/07/09 06:05:58;;;;;;;1.10;1.10;;;;;;;24.53;58.52;97260.53;4986851;28;20062;-65
2023/07/09 06:08:26;;;;;;;1.05;1.05;;;;;;;24.55;54.84;97238.22;5001607;28;20470;-65
2023/07/09 06:10:54;;;;;;;1.00;1.00;;;;;;;24.94;54.46;97257.50;5001280;28;20058;-65
2023/07/09 06:13:21;;;;;;;1.00;1.00;;;;;;;25.08;54.02;97244.84;4986969;28;20501;-66
2023/07/09 06:15:50;;;;;;;1.00;1.00;;;;;;;25.09;52.92;97230.22;4986763;28;20046;-65
2023/07/09 06:18:16;;;;;;;1.00;1.00;;;;;;;23.84;50.46;97033.22;4986466;28;20485;-65
2023/07/09 06:20:51;;;;;;;1.30;1.30;;;;;;;24.71;53.16;97147.41;4986767;28;20488;-66
2023/07/09 06:23:19;;;;;;;1.10;1.10;;;;;;;24.91;53.96;97195.28;4986506;28;20531;-65
2023/07/09 06:25:47;;;;;;;1.17;1.17;;;;;;;25.35;51.17;97264.94;4986728;28;20054;-65
2023/07/09 06:28:20;;;;;;;1.30;1.30;;;;;;;25.62;51.10;97244.44;4985198;28;20148;-66
2023/07/09 06:30:47;;;;;;;1.45;1.45;;;;;;;25.01;48.38;97177.88;4986854;28;20058;-65
2023/07/09 06:33:16;;;;;;;1.27;1.27;;;;;;;25.53;51.04;97235.88;4985467;28;20481;-66
2023/07/09 06:35:47;;;;;;;1.00;1.00;;;;;;;25.70;50.41;97223.03;4986639;28;20141;-66
2023/07/09 06:38:14;;;;;;;1.30;1.30;;;;;;;25.78;48.81;97224.34;4984938;28;20388;-65
2023/07/09 06:40:41;;;;;;;1.23;1.23;;;;;;;25.66;48.18;97177.78;5000011;28;20050;-65
2023/07/09 06:43:08;;;;;;;1.23;1.23;;;;;;;26.32;47.62;97230.25;4985243;28;20497;-65
2023/07/09 06:45:35;;;;;;;1.13;1.13;;;;;;;26.51;45.50;97254.56;4985033;28;20062;-65
2023/07/09 06:48:02;;;;;;;1.40;1.40;;;;;;;26.46;43.37;97246.69;4984895;28;20077;-65
2023/07/09 06:50:29;;;;;;;1.42;1.42;;;;;;;26.20;44.23;97177.19;4984798;28;20058;-65
2023/07/09 06:52:55;;;;;;;1.30;1.30;;;;;;;26.77;44.57;97247.38;4984828;28;20088;-65
2023/07/09 06:55:22;;;;;;;1.30;1.30;;;;;;;26.67;44.90;97206.00;4985943;28;20105;-66
2023/07/09 06:57:49;;;;;;;1.60;1.60;;;;;;;26.51;43.94;97192.84;4986306;28;20525;-65
2023/07/09 07:00:16;;;;;;;1.30;1.30;;;;;;;26.82;43.37;97218.31;4985828;28;20310;-66
2023/07/09 07:02:42;;;;;;;1.35;1.35;;;;;;;25.35;42.78;96991.84;4986372;28;20062;-65
2023/07/09 07:05:09;;;;;;;1.50;1.50;;;;;;;26.96;43.60;97223.38;4985434;28;20401;-65
2023/07/09 07:07:36;;;;;;;1.63;1.63;;;;;;;26.81;43.60;97191.16;4984481;28;20062;-66
2023/07/09 07:10:03;;;;;;;1.40;1.40;;;;;;;26.99;43.42;97211.06;4984625;28;20054;-64
2023/07/09 07:12:41;;;;;;;1.60;1.60;;;;;;;27.17;42.97;97228.13;4985682;28;20137;-66
2023/07/09 07:15:08;;;;;;;1.50;1.50;;;;;;;26.99;42.13;97181.81;4985974;28;20529;-65
2023/07/09 07:17:35;;;;;;;1.40;1.40;;;;;;;27.10;42.65;97222.72;4985166;28;20145;-65
2023/07/09 07:20:02;;;;;;;1.40;1.40;;;;;;;27.21;43.10;97234.41;4984445;28;20137;-64
2023/07/09 07:22:29;;;;;;;1.38;1.38;;;;;;;27.42;44.05;97227.78;4985674;28;20054;-66
2023/07/09 07:24:56;;;;;;;1.33;1.33;;;;;;;26.99;42.50;97171.22;4976835;28;20046;-65
2023/07/09 07:27:22;;;;;;;1.20;1.20;;;;;;;27.35;41.29;97233.78;4983938;28;20473;-66
2023/07/09 07:29:49;;;;;;;1.20;1.20;;;;;;;27.14;39.08;97179.91;4985509;28;20838;-65
2023/07/09 07:32:16;;;;;;;1.50;1.50;;;;;;;27.34;40.10;97232.22;4984924;28;20493;-65
2023/07/09 07:34:42;;;;;;;1.38;1.38;;;;;;;27.15;40.25;97185.13;4985201;28;20090;-68
2023/07/09 07:37:10;;;;;;;1.35;1.35;;;;;;;27.18;42.14;97155.72;4985325;28;20057;-65
2023/07/09 07:39:36;;;;;;;1.40;1.40;;;;;;;27.56;43.14;97190.09;4985404;28;20452;-64
2023/07/09 07:42:03;;;;;;;1.65;1.65;;;;;;;27.57;41.02;97160.38;4985409;28;20056;-64
2023/07/09 07:44:33;;;;;;;1.58;1.58;;;;;;;27.65;42.03;97212.03;4984637;28;20054;-66
2023/07/09 07:46:59;;;;;;;1.55;1.55;;;;;;;27.73;40.68;97208.38;4983820;28;20149;-66
2023/07/09 07:49:27;;;;;;;1.42;1.42;;;;;;;27.94;41.13;97213.09;4985152;28;20054;-63
2023/07/09 07:51:53;;;;;;;1.70;1.70;;;;;;;27.73;41.78;97197.00;4984918;28;20056;-65
2023/07/09 07:54:20;;;;;;;1.70;1.70;;;;;;;28.11;42.60;97208.56;4985489;28;20060;-65
2023/07/09 07:56:47;;;;;;;1.45;1.45;;;;;;;27.88;40.16;97174.34;4984823;28;20437;-65
2023/07/09 07:59:14;;;;;;;1.63;1.63;;;;;;;27.58;39.86;97175.41;4984827;28;20504;-65
2023/07/09 08:01:40;;;;;;;1.48;1.48;;;;;;;27.64;41.05;97199.88;4984575;28;20890;-65
2023/07/09 08:04:07;;;;;;;1.63;1.63;;;;;;;27.63;39.97;97186.91;4984848;28;20752;-65
2023/07/09 08:06:35;;;;;;;1.55;1.55;;;;;;;27.83;40.31;97209.94;4982783;28;20101;-65
2023/07/09 08:09:02;;;;;;;1.50;1.50;;;;;;;27.88;40.17;97209.28;4984775;28;20058;-65
2023/07/09 08:11:31;;;;;;;1.55;1.55;;;;;;;27.67;38.58;97164.75;4984771;28;20065;-65
2023/07/09 08:13:58;;;;;;;1.50;1.50;;;;;;;28.17;39.46;97207.91;4983411;28;20051;-66
2023/07/09 08:16:24;;;;;;;1.40;1.40;;;;;;;28.22;37.39;97170.22;4984573;28;20129;-65
2023/07/09 08:18:51;;;;;;;1.77;1.77;;;;;;;28.33;38.67;97198.97;4984441;28;20315;-65
2023/07/09 08:21:18;;;;;;;1.50;1.50;;;;;;;28.64;37.61;97202.25;4982809;28;20662;-65
2023/07/09 08:23:45;;;;;;;1.80;1.80;;;;;;;28.66;37.60;97199.72;4985016;28;20058;-66
2023/07/09 08:26:12;;;;;;;1.60;1.60;;;;;;;28.61;37.72;97191.81;4984848;28;20137;-66
2023/07/09 08:28:39;;;;;;;1.40;1.40;;;;;;;28.82;37.82;97157.25;4984846;28;20057;-66
2023/07/09 08:31:06;;;;;;;2.00;2.00;;;;;;;28.93;37.18;97186.00;4984275;28;20521;-66
2023/07/09 08:33:33;;;;;;;1.80;1.80;;;;;;;28.65;37.12;97141.09;4985405;28;20058;-66
2023/07/09 08:36:00;;;;;;;1.55;1.55;;;;;;;28.69;36.90;97193.03;4984701;28;20595;-65
2023/07/09 08:38:27;;;;;;;1.50;1.50;;;;;;;28.75;37.22;97185.38;4984498;28;20070;-63
2023/07/09 08:41:06;;;;;;;1.77;1.77;;;;;;;28.92;36.71;97187.28;4984273;28;20061;-65
2023/07/09 08:43:35;;;;;;;1.75;1.75;;;;;;;29.07;38.31;97175.94;4984410;28;20054;-66
2023/07/09 08:46:08;;;;;;;1.50;1.50;;;;;;;29.26;37.47;97185.91;4982782;28;20549;-65
2023/07/09 08:48:39;;;;;;;1.40;1.40;;;;;;;28.92;37.11;97103.75;4983266;28;20065;-65
2023/07/09 08:51:15;;;;;;;1.60;1.60;;;;;;;29.21;36.35;97184.50;4984315;28;20275;-64
2023/07/09 08:53:56;;;;;;;1.60;1.60;;;;;;;29.19;37.66;97180.56;4984658;28;20050;-65
2023/07/09 08:56:25;;;;;;;1.60;1.60;;;;;;;29.14;37.33;97178.38;4984289;28;20411;-64
2023/07/09 08:58:54;;;;;;;1.63;1.63;;;;;;;29.06;37.80;97125.81;4984443;28;20050;-65
2023/07/09 09:01:30;;;;;;;1.60;1.60;;;;;;;29.39;35.77;97189.22;4984262;28;20432;-65
2023/07/09 09:04:22;;;;;;;1.50;1.50;;;;;;;29.54;36.68;97187.16;4984159;28;20098;-65
2023/07/09 09:07:05;;;;;;;1.30;1.30;;;;;;;29.04;36.48;97134.06;4982576;28;20054;-66
2023/07/09 09:09:43;;;;;;;1.75;1.75;;;;;;;29.36;35.84;97181.66;4984344;28;20058;-65
2023/07/09 09:12:13;;;;;;;1.40;1.40;;;;;;;29.69;35.62;97179.41;4984273;28;20057;-65
2023/07/09 09:14:43;;;;;;;1.77;1.77;;;;;;;29.83;35.10;97172.09;4982843;28;20178;-65
2023/07/09 09:17:16;;;;;;;1.67;1.67;;;;;;;30.03;35.33;97181.53;4984229;28;20082;-65
2023/07/09 09:20:19;;;;;;;1.70;1.70;;;;;;;30.07;35.10;97182.09;4984251;28;20445;-64
2023/07/09 09:23:09;;;;;;;1.55;1.55;;;;;;;29.98;34.97;97167.94;4983710;28;20057;-64
2023/07/09 09:25:40;;;;;;;1.50;1.50;;;;;;;29.60;34.80;97142.38;4983725;28;20114;-65
2023/07/09 09:28:08;;;;;;;1.60;1.60;;;;;;;29.81;35.47;97137.53;4984387;28;20498;-64
2023/07/09 09:30:34;;;;;;;1.65;1.65;;;;;;;30.19;34.77;97171.63;4983616;28;20509;-64
2023/07/09 09:33:06;;;;;;;1.60;1.60;;;;;;;30.14;35.63;97149.44;4986711;28;20077;-66
2023/07/09 09:35:43;;;;;;;1.50;1.50;;;;;;;30.46;35.08;97174.88;4987711;28;20059;-65
2023/07/09 09:38:18;;;;;;;1.50;1.50;;;;;;;30.24;34.55;97145.97;4986100;28;20093;-65
2023/07/09 09:40:44;;;;;;;2.05;2.05;;;;;;;30.37;35.35;97149.28;4987323;28;20523;-66
2023/07/09 09:43:14;;;;;;;1.60;1.60;;;;;;;30.50;35.12;97166.88;4987038;28;20137;-65
2023/07/09 09:45:44;;;;;;;1.73;1.73;;;;;;;30.54;34.88;97176.03;4986277;28;20054;-65
2023/07/09 09:48:17;;;;;;;1.80;1.80;;;;;;;30.41;34.92;97141.31;4987636;28;20054;-64
2023/07/09 09:50:46;;;;;;;1.50;1.50;;;;;;;30.19;33.19;97178.09;4976766;28;20121;-65
2023/07/09 09:53:22;;;;;;;1.73;1.73;;;;;;;30.11;33.39;97187.59;4968261;28;20513;-64
2023/07/09 09:55:54;;;;;;;2.00;2.00;;;;;;;30.22;33.98;97188.59;4967517;28;20532;-65
2023/07/09 09:58:28;;;;;;;1.70;1.70;;;;;;;30.14;33.84;97173.13;4968071;28;20406;-66
2023/07/09 10:00:56;;;;;;;1.80;1.80;;;;;;;30.16;35.15;97176.25;4966555;28;20050;-64
2023/07/09 10:03:34;;;;;;;1.90;1.90;;;;;;;30.21;34.42;97175.56;4966375;28;20546;-65
2023/07/09 10:06:10;;;;;;;1.40;1.40;;;;;;;29.49;36.24;97147.88;4967486;28;20051;-66
2023/07/09 10:08:40;;;;;;;1.90;1.90;;;;;;;29.44;36.37;97188.53;4966012;28;20133;-65
2023/07/09 10:11:39;;;;;;;1.70;1.70;;;;;;;28.97;36.55;97174.41;4968633;28;20062;-64
2023/07/09 10:14:31;;;;;;;1.58;1.58;;;;;;;29.22;36.83;97168.16;4987255;28;20076;-64
2023/07/09 10:17:05;;;;;;;1.65;1.65;;;;;;;29.30;37.33;97169.34;4986991;28;20279;-66
2023/07/09 10:19:56;;;;;;;1.65;1.65;;;;;;;29.33;36.89;97168.38;4985515;28;20054;-65
2023/07/09 10:22:42;;;;;;;1.77;1.77;;;;;;;29.31;36.64;97136.66;4986751;28;20621;-65
2023/07/09 10:25:26;;;;;;;1.40;1.40;;;;;;;29.23;36.29;97152.59;4986826;28;20145;-66
2023/07/09 10:28:08;;;;;;;1.50;1.50;;;;;;;29.37;37.16;97151.84;4986083;28;20050;-65
2023/07/09 10:30:50;;;;;;;1.58;1.58;;;;;;;28.73;37.05;97140.22;4986207;28;20065;-65
2023/07/09 10:33:33;;;;;;;1.60;1.60;;;;;;;28.13;38.26;97134.00;4986611;28;20055;-64
2023/07/09 10:36:21;;;;;;;1.50;1.50;;;;;;;28.81;38.20;97143.50;4986729;28;20058;-64
2023/07/09 10:39:11;;;;;;;1.40;1.40;;;;;;;28.79;37.15;97134.63;4986125;28;20073;-65
2023/07/09 10:41:38;;;;;;;1.50;1.50;;;;;;;29.00;38.64;97139.19;4985658;28;20054;-65
2023/07/09 10:44:16;;;;;;;1.60;1.60;;;;;;;28.72;36.26;97049.47;4986378;28;20517;-65
2023/07/09 10:46:49;;;;;;;1.65;1.65;;;;;;;29.64;36.37;97131.53;4985821;28;20050;-64
2023/07/09 10:49:17;;;;;;;1.80;1.80;;;;;;;29.94;34.70;97155.91;4986230;28;20509;-65
2023/07/09 10:51:59;;;;;;;1.80;1.80;;;;;;;28.92;36.83;97093.16;4984343;28;20321;-65
2023/07/09 10:54:41;;;;;;;1.63;1.63;;;;;;;29.27;37.74;97131.19;4966471;28;20126;-64
2023/07/09 10:57:18;;;;;;;1.70;1.70;;;;;;;29.71;37.52;97138.91;4966463;28;20142;-64
2023/07/09 10:59:49;;;;;;;1.58;1.58;;;;;;;29.89;34.96;97145.19;4966830;28;20066;-66
2023/07/09 11:02:26;;;;;;;1.70;1.70;;;;;;;29.59;37.14;97143.66;4966564;28;20506;-64
2023/07/09 11:04:56;;;;;;;1.55;1.55;;;;;;;29.36;38.30;97153.09;4965172;28;20055;-63
2023/07/09 11:07:34;;;;;;;1.90;1.90;;;;;;;29.28;38.01;97078.50;4965301;28;20580;-64
2023/07/09 11:10:07;;;;;;;1.67;1.67;;;;;;;29.45;38.15;97110.16;4964821;28;20528;-64
2023/07/09 11:12:42;;;;;;;1.67;1.67;;;;;;;28.94;38.19;97124.03;4978433;28;20046;-65
2023/07/09 11:15:30;;;;;;;1.63;1.63;;;;;;;28.50;39.66;97112.53;4985673;28;20058;-64
2023/07/09 11:17:59;;;;;;;1.60;1.60;;;;;;;28.42;40.27;97144.75;4985675;28;20540;-64
2023/07/09 11:20:41;;;;;;;1.40;1.40;;;;;;;28.18;40.37;97154.06;4984308;28;20050;-64
2023/07/09 11:23:24;;;;;;;1.60;1.60;;;;;;;28.56;38.41;97155.44;4984401;28;20069;-65
2023/07/09 11:26:09;;;;;;;1.55;1.55;;;;;;;28.39;37.94;97155.03;4985751;28;20113;-66
2023/07/09 11:28:39;;;;;;;1.52;1.52;;;;;;;28.84;38.28;97151.84;4986143;28;20513;-65
2023/07/09 11:31:20;;;;;;;1.42;1.42;;;;;;;29.30;38.96;97135.09;4984728;28;20137;-65
2023/07/09 11:34:02;;;;;;;1.98;1.98;;;;;;;29.20;39.39;97085.09;4985697;28;20559;-64
2023/07/09 11:36:31;;;;;;;1.53;1.53;;;;;;;29.47;38.93;97121.88;4983764;28;20225;-65
2023/07/09 11:38:58;;;;;;;1.40;1.40;;;;;;;29.94;36.78;97127.34;4985189;28;20434;-65
2023/07/09 11:41:38;;;;;;;1.52;1.52;;;;;;;30.17;36.14;97134.16;4984649;28;20222;-64
2023/07/09 11:44:14;;;;;;;1.40;1.40;;;;;;;30.10;34.51;97135.38;4985166;28;20065;-66
2023/07/09 11:46:53;;;;;;;1.70;1.70;;;;;;;29.96;35.95;97130.47;4985160;28;20238;-64
2023/07/09 11:49:23;;;;;;;1.60;1.60;;;;;;;30.02;37.04;97137.06;4984924;28;20060;-65